This demonstration page uses our WeatherBlox Daily Observations layout. Learn more.

Left ArrowRight Arrow

36.17497, -115.13722

Hourly Observations for May 22, 2016

Temp ( °F °C ) Dew Point ( °F °C ) Humidity (%) Winds ( mph kmh ) Pressure ( in mb ) Visibility ( mi km ) Precip ( " mm )
12:53 am 00:53 Clear 64 17.8 28 -2.2 26 26 WSW 21 33 29.82 1010 10 16.0934 0 0
1:53 am 01:53 Clear 63 17.2 27 -2.8 26 26 WSW 17 28 29.83 1010 10 16.0934 0 0
2:53 am 02:53 Clear 61 16.1 27 -2.8 27 27 VRB 3 6 29.86 1011 10 16.0934 0 0
3:53 am 03:53 Clear 60 15.6 28 -2.2 30 30 SW 16 26 29.85 1011 10 16.0934 0 0
4:53 am 04:53 Clear 59 15 28 -2.2 31 31 WNW 9 15 29.86 1011 10 16.0934 0 0
5:53 am 05:53 Sunny 60 15.6 25 -3.9 26 26 N 20 31 29.88 1012 10 16.0934 0 0
6:53 am 06:53 Sunny 61 16.1 28 -2.2 29 29 NNW 18 30 29.91 1013 10 16.0934 0 0
7:53 am 07:53 Sunny 65 18.3 25 -3.9 22 22 NNW 16 26 29.93 1014 10 16.0934 0 0
8:53 am 08:53 Sunny 67 19.4 27 -2.8 22 22 NNW 17 28 29.95 1014 10 16.0934 0 0
9:53 am 09:53 Sunny 70 21.1 26 -3.3 19 19 N 10 17 29.95 1014 10 16.0934 0 0
10:53 am 10:53 Sunny 70 21.1 26 -3.3 19 19 NE 8 13 29.95 1014 10 16.0934 0 0
11:53 am 11:53 Sunny 73 22.8 26 -3.3 17 17 Calm 29.94 1014 10 16.0934 0 0
12:53 pm 12:53 Sunny 74 23.3 27 -2.8 17 17 VRB 7 11 29.93 1013 10 16.0934 0 0
1:53 pm 13:53 Sunny 75 23.9 27 -2.8 17 17 VRB 5 7 29.9 1013 10 16.0934 0 0
2:53 pm 14:53 Sunny 76 24.4 26 -3.3 16 16 NNW 5 7 29.88 1012 10 16.0934 0 0
3:53 pm 15:53 Sunny 77 25 25 -3.9 14 14 VRB 3 6 29.85 1011 10 16.0934 0 0
4:53 pm 16:53 Sunny 78 25.6 23 -5 13 13 VRB 6 9 29.83 1010 10 16.0934 0 0
5:53 pm 17:53 Sunny 78 25.6 21 -6.1 12 12 VRB 5 7 29.81 1010 10 16.0934 0 0
6:53 pm 18:53 Sunny 78 25.6 22 -5.6 12 12 S 9 15 29.79 1009 10 16.0934 0 0
7:53 pm 19:53 Clear 76 24.4 19 -7.2 12 12 S 8 13 29.78 1009 10 16.0934 0 0
8:53 pm 20:53 Clear 75 23.9 22 -5.6 14 14 S 8 13 29.8 1009 10 16.0934 0 0
9:53 pm 21:53 Clear 73 22.8 23 -5 15 15 SSE 7 11 29.8 1009 10 16.0934 0 0
10:53 pm 22:53 Clear 72 22.2 25 -3.9 17 17 WSW 3 6 29.8 1009 10 16.0934 0 0
11:53 pm 23:53 Clear 69 20.6 27 -2.8 21 21 WNW 3 6 29.8 1009 10 16.0934 0 0

Powered by AerisWeather